Flight ASX315X

  • Submitted By: Lukasz Przybylak
  • Departure Airport: Szczecin (EPSC)
  • Arrival Airport: Gdansk im. Lecha Walesy (EPGD)
  • Aircraft: KING AIR 350 (SP-DBL)
  • Flight Time: 01.18.33
  • Date Submitted: 09/07/2017
  • Route: LUXAL L730 KOSEX
  • Status: Accepted
Flight Details
Gross Revenue:
(68 load / € 55.00 per unit
€ 3,740.00
Fuel Cost:
(230.879 fuel used @ 0.45 / unit)
€ 103.90

Additional Log Information:

View Log

[22:00] - CARENADO B350i King Air 5003
[22:00] - Flight ASX315X is ready to depart EPSC with a final destination of EPGD.
[22:00] - Navigation Lights ON
[22:00] - Beacon Light ON
[22:00] - Instrument Lights ON
[22:00] - Boarding
[22:00] - Engine 1 Started
[22:10] - Engine 2 Started
[22:12] - Flaps to position 1
[22:12] - Taxi Lights ON 6AGL
[22:12] - Recognition Lights ON 6AGL
[22:12] - Wing Lights ON 6AGL
[22:14] - Pushing Back from the gate
[22:14] - Parking Brake Released
[22:16] - Taxiing to Runway
[22:20] - Parking Brake Applied
[22:21] - Landing Lights ON 6AGL
[22:21] - Taxi Lights OFF 6AGL
[22:21] - Strobe Lights ON 6AGL
[22:21] - Parking Brake Released
[22:23] - Taking Off with 68 passengers on board
[22:23] - Take off at 130kts, with a pitch of 3deg and 1420lbs of fuel on board
[22:23] - Wind Heading 248 | Wind Speed 11kts | Temperature 13 deg C
[22:23] - METAR Departure: EPSC 072000Z 24007KT 210V270 9999 FEW034 14/12 Q1009

[22:23] - Climbing to TOC
[22:23] - Flaps to position 0 at 774ft and 147kts
[22:23] - Gear up at 1158AGL
[22:24] - AutoPilot Engaged at 1965AGL
[22:24] - AutoPilot Disengaged at 2074AGL
[22:24] - AutoPilot Engaged at 2152AGL
[22:35] - NAV1 - 110.30
[22:36] - TOC reached
[22:36] - Cruise started
[22:37] - Landing Lights OFF 18639AGL
[22:48] - TOD reached
[22:48] - Descending to destination
[22:55] - Landing Lights ON 8107AGL
[22:58] - Landing Shortly
[23:01] - Flaps to position 1 at 4180ft and 124kts
[23:04] - Gear down at 2982AGL
[23:07] - Flaps to position 2 at 869ft and 145kts
[23:07] - AutoPilot Disengaged at 193AGL
[23:08] - Landed at -106fpm. With 972lbs of fuel onboard and a pitch angle of 1deg.
[23:08] - Wind Heading 162 | Wind Speed 2kts | Temperature 10 deg C
[23:08] - METAR Arrival: EPGD 072030Z VRB01KT 9999 BKN048 11/10 Q1008

[23:08] - Taxiing to Gate
[23:08] - Parking Brake Applied
[23:08] - Arrived safely at EPGD. We hope you enjoyed your flight!
[23:08] - Landing Lights OFF 3AGL
[23:08] - Taxi Lights ON 3AGL
[23:11] - Parking Brake Released
[23:11] - Taxiing to Gate
[23:12] - Strobe Lights OFF 3AGL
[23:16] - Parking Brake Applied
[23:16] - Arrived safely at EPGD. We hope you enjoyed your flight!
[23:16] - Taxi Lights OFF 3AGL
[23:16] - Navigation Lights OFF 3AGL
[23:16] - Wing Lights OFF 3AGL
[23:16] - Recognition Lights OFF 3AGL
[23:16] - Engine 1 Stopped
[23:16] - Engine 2 Stopped
[23:18] - CARENADO B350i King Air 5003
[23:18] - MaxSim Rate: 1x
[23:18] - SiouxAcars ver: 1.0.1.2

Route Map